createdAt,value
2019-05-22T00:02:43.125Z,18.47
2019-05-22T00:07:46.799Z,18.87
2019-05-22T00:12:49.302Z,17.60
2019-05-22T00:17:53.694Z,17.17
2019-05-22T00:22:56.700Z,17.10
2019-05-22T00:27:59.378Z,14.00
2019-05-22T00:33:02.170Z,16.17
2019-05-22T00:38:06.712Z,13.13
2019-05-22T00:43:13.731Z,15.83
2019-05-22T00:48:16.158Z,13.70
2019-05-22T00:53:28.232Z,13.90
2019-05-22T00:58:34.734Z,11.30
2019-05-22T01:03:38.276Z,13.33
2019-05-22T01:08:41.708Z,19.17
2019-05-22T01:13:45.726Z,21.33
2019-05-22T01:18:49.514Z,22.77
2019-05-22T01:23:55.084Z,20.37
2019-05-22T01:28:58.775Z,24.67
2019-05-22T01:34:21.383Z,21.93
2019-05-22T01:39:42.369Z,25.23
2019-05-22T01:44:59.703Z,30.43
2019-05-22T01:49:53.545Z,28.30
2019-05-22T01:54:57.221Z,34.20
2019-05-22T02:00:00.472Z,26.23
2019-05-22T02:05:04.783Z,27.53
2019-05-22T02:10:12.829Z,34.00
2019-05-22T02:15:17.239Z,27.33
2019-05-22T02:20:19.914Z,23.83
2019-05-22T02:25:23.301Z,28.33
2019-05-22T02:30:26.724Z,25.13
2019-05-22T02:35:30.310Z,26.63
2019-05-22T02:40:36.804Z,27.30
2019-05-22T02:45:39.432Z,32.30
2019-05-22T02:50:41.977Z,26.87
2019-05-22T02:55:44.666Z,27.90
2019-05-22T03:00:56.762Z,32.67
2019-05-22T03:05:59.785Z,36.00
2019-05-22T03:11:02.433Z,35.57
2019-05-22T03:16:05.703Z,36.57
2019-05-22T03:21:08.419Z,39.77
2019-05-22T03:26:12.597Z,39.47
2019-05-22T03:31:15.911Z,40.07
2019-05-22T03:36:21.726Z,47.27
2019-05-22T03:41:23.798Z,41.30
2019-05-22T03:46:39.488Z,41.93
2019-05-22T03:51:43.967Z,38.60
2019-05-22T03:56:47.291Z,36.90
2019-05-22T04:01:50.660Z,36.27
2019-05-22T04:06:54.078Z,38.90
2019-05-22T04:11:57.490Z,34.83
2019-05-22T04:17:00.307Z,32.23
2019-05-22T04:22:03.315Z,31.10
2019-05-22T04:27:06.356Z,31.53
2019-05-22T04:32:18.048Z,34.80
2019-05-22T04:37:20.506Z,28.93
2019-05-22T04:42:24.357Z,31.70
2019-05-22T04:47:26.562Z,36.17
2019-05-22T04:52:30.507Z,30.30
2019-05-22T04:57:32.808Z,32.20
2019-05-22T05:02:35.556Z,28.70
2019-05-22T05:07:38.654Z,27.77
2019-05-22T05:12:42.015Z,30.63
2019-05-22T05:17:44.554Z,31.10
2019-05-22T05:22:52.589Z,27.83
2019-05-22T05:27:58.466Z,24.87
2019-05-22T05:33:01.573Z,29.17
2019-05-22T05:38:05.520Z,27.70
2019-05-22T05:43:11.581Z,25.23
2019-05-22T05:48:17.214Z,26.73
2019-05-22T05:53:21.975Z,26.07
2019-05-22T05:58:28.146Z,28.63
2019-05-22T06:03:40.821Z,23.03
2019-05-22T06:08:45.395Z,27.83
2019-05-22T06:13:49.066Z,28.33
2019-05-22T06:18:56.946Z,29.27
2019-05-22T06:24:25.016Z,25.50
2019-05-22T06:29:49.220Z,29.97
2019-05-22T06:34:52.090Z,29.20
2019-05-22T06:39:55.565Z,29.90
2019-05-22T06:44:58.002Z,26.57
2019-05-22T06:50:01.262Z,21.43
2019-05-22T06:55:03.946Z,23.60
2019-05-22T07:00:19.969Z,23.43
2019-05-22T07:05:23.391Z,26.27
2019-05-22T07:10:26.746Z,21.50
2019-05-22T07:16:01.700Z,21.43
2019-05-22T07:21:06.015Z,17.90
2019-05-22T07:26:08.776Z,19.40
2019-05-22T07:31:11.158Z,17.60
2019-05-22T07:36:17.299Z,17.80
2019-05-22T07:41:19.915Z,16.87
2019-05-22T07:46:23.046Z,17.77
2019-05-22T07:51:25.436Z,15.17
2019-05-22T07:56:29.677Z,14.63
2019-05-22T08:01:34.132Z,15.47
2019-05-22T08:06:36.612Z,15.23
2019-05-22T08:11:39.412Z,17.00
2019-05-22T08:16:42.143Z,17.17
2019-05-22T08:21:44.276Z,16.90
2019-05-22T08:26:54.315Z,13.13
2019-05-22T08:31:52.873Z,14.77
2019-05-22T08:36:55.400Z,14.27
2019-05-22T08:41:57.529Z,16.43
2019-05-22T08:47:00.624Z,19.03
2019-05-22T08:52:04.090Z,15.67
2019-05-22T08:57:08.398Z,16.03
2019-05-22T09:02:11.792Z,13.87
2019-05-22T09:07:13.886Z,15.17
2019-05-22T09:12:16.367Z,12.83
2019-05-22T09:17:18.652Z,15.10
2019-05-22T09:22:21.103Z,12.23
2019-05-22T09:27:23.394Z,13.93
2019-05-22T09:32:25.718Z,15.93
2019-05-22T09:37:28.287Z,19.70
2019-05-22T09:42:32.054Z,15.00
2019-05-22T09:47:35.470Z,13.47
2019-05-22T09:52:37.801Z,15.23
2019-05-22T09:57:40.158Z,16.67
2019-05-22T10:02:42.887Z,13.03
2019-05-22T10:07:59.029Z,13.03
2019-05-22T10:12:50.943Z,14.07
2019-05-22T10:17:53.662Z,14.60
2019-05-22T10:22:55.857Z,13.53
2019-05-22T10:27:59.484Z,12.20
2019-05-22T10:33:01.854Z,12.10
2019-05-22T10:38:04.635Z,12.67
2019-05-22T10:43:07.067Z,11.77
2019-05-22T10:48:09.708Z,10.13
2019-05-22T10:53:12.219Z,11.13
2019-05-22T10:58:17.388Z,10.47
2019-05-22T11:03:20.814Z,11.43
2019-05-22T11:08:24.114Z,16.80
2019-05-22T11:13:26.622Z,12.90
2019-05-22T11:18:29.218Z,10.67
2019-05-22T11:23:31.812Z,9.77
2019-05-22T11:28:34.110Z,10.90
2019-05-22T11:33:36.448Z,11.17
2019-05-22T11:38:38.528Z,11.00
2019-05-22T11:43:41.504Z,10.70
2019-05-22T11:48:43.663Z,8.60
2019-05-22T11:53:46.264Z,9.43
2019-05-22T11:58:48.897Z,9.93
2019-05-22T12:03:51.439Z,9.37
2019-05-22T12:08:53.621Z,10.27
2019-05-22T12:13:55.705Z,10.03
2019-05-22T12:18:59.074Z,11.97
2019-05-22T12:24:01.522Z,10.93
2019-05-22T12:29:04.122Z,12.37
2019-05-22T12:34:06.484Z,10.70
2019-05-22T12:39:09.902Z,11.67
2019-05-22T12:44:13.609Z,10.77
2019-05-22T12:49:17.582Z,11.33
2019-05-22T12:54:19.665Z,14.07
2019-05-22T12:59:24.842Z,14.60
2019-05-22T13:04:29.617Z,14.67
2019-05-22T13:09:31.804Z,14.53
2019-05-22T13:14:34.478Z,15.40
2019-05-22T13:19:37.340Z,13.90
2019-05-22T13:24:40.589Z,16.67
2019-05-22T13:29:47.946Z,15.83
2019-05-22T13:34:53.416Z,18.20
2019-05-22T13:39:57.908Z,16.23
2019-05-22T13:45:03.626Z,17.90
2019-05-22T13:50:06.728Z,15.23
2019-05-22T13:55:09.776Z,14.83
2019-05-22T14:00:16.572Z,15.60
2019-05-22T14:05:19.332Z,19.50
2019-05-22T14:10:22.980Z,21.50
2019-05-22T14:15:25.776Z,18.47
2019-05-22T14:20:28.399Z,17.77
2019-05-22T14:25:31.073Z,17.33
2019-05-22T14:30:33.165Z,19.97
2019-05-22T14:35:48.516Z,18.27
2019-05-22T14:40:44.249Z,15.23
2019-05-22T14:45:46.593Z,14.03
2019-05-22T14:50:48.634Z,14.63
2019-05-22T14:55:54.580Z,14.63
2019-05-22T15:00:56.764Z,14.53
2019-05-22T15:05:59.237Z,13.53
2019-05-22T15:11:01.536Z,14.70
2019-05-22T15:16:03.657Z,15.03
2019-05-22T15:21:13.060Z,15.23
2019-05-22T15:26:16.175Z,14.87
2019-05-22T15:31:26.336Z,13.63
2019-05-22T15:36:28.550Z,12.03
2019-05-22T15:41:32.206Z,11.27
2019-05-22T15:46:35.462Z,15.10
2019-05-22T15:51:39.662Z,9.83
2019-05-22T15:56:43.461Z,11.10
2019-05-22T16:01:46.711Z,8.50
2019-05-22T16:06:49.935Z,12.00
2019-05-22T16:11:53.719Z,11.47
2019-05-22T16:16:57.094Z,12.53
2019-05-22T16:22:02.898Z,15.03
2019-05-22T16:27:08.892Z,10.03
2019-05-22T16:32:13.848Z,8.37
2019-05-22T16:37:19.766Z,9.33
2019-05-22T16:42:22.929Z,11.07
2019-05-22T16:47:25.615Z,10.00
2019-05-22T16:52:28.641Z,10.13
2019-05-22T16:57:32.324Z,9.83
2019-05-22T17:02:36.153Z,8.80
2019-05-22T17:07:41.386Z,9.23
2019-05-22T17:12:45.907Z,9.00
2019-05-22T17:17:48.759Z,11.53
2019-05-22T17:22:52.840Z,10.07
2019-05-22T17:27:57.124Z,11.90
2019-05-22T17:33:00.103Z,8.97
2019-05-22T17:38:06.428Z,7.70
2019-05-22T17:43:09.969Z,7.97
2019-05-22T17:48:17.540Z,8.90
2019-05-22T17:53:20.377Z,10.10
2019-05-22T17:58:30.149Z,17.83
2019-05-22T18:03:32.639Z,13.47
2019-05-22T18:08:36.327Z,5.80
2019-05-22T18:13:59.268Z,6.57
2019-05-22T18:19:01.875Z,7.87
2019-05-22T18:24:04.719Z,7.90
2019-05-22T18:29:09.582Z,9.03
2019-05-22T18:34:11.860Z,6.47
2019-05-22T18:39:23.363Z,8.37
2019-05-22T18:44:25.534Z,6.17
2019-05-22T18:49:27.589Z,7.97
2019-05-22T18:54:29.706Z,7.20
2019-05-22T18:59:31.750Z,7.73
2019-05-22T19:04:33.940Z,9.60
2019-05-22T19:09:36.263Z,7.63
2019-05-22T19:14:38.808Z,7.73
2019-05-22T19:19:41.145Z,5.80
2019-05-22T19:24:43.240Z,6.93
2019-05-22T19:29:45.294Z,6.23
2019-05-22T19:34:47.240Z,5.60
2019-05-22T19:39:50.362Z,5.53
2019-05-22T19:44:53.106Z,7.00
2019-05-22T19:49:55.244Z,7.47
2019-05-22T19:54:58.474Z,7.13
2019-05-22T20:00:02.982Z,7.17
2019-05-22T20:05:07.044Z,6.87
2019-05-22T20:10:09.577Z,6.23
2019-05-22T20:15:12.092Z,6.10
2019-05-22T20:20:16.797Z,5.97
2019-05-22T20:25:21.549Z,6.03
2019-05-22T20:30:24.069Z,8.10
2019-05-22T20:35:26.458Z,6.40
2019-05-22T20:40:29.739Z,7.53
2019-05-22T20:45:33.069Z,5.43
2019-05-22T20:50:35.880Z,8.37
2019-05-22T20:55:39.642Z,6.17
2019-05-22T21:00:43.016Z,7.37
2019-05-22T21:05:45.337Z,7.40
2019-05-22T21:10:47.986Z,8.53
2019-05-22T21:15:51.775Z,5.90
2019-05-22T21:20:55.625Z,6.10
2019-05-22T21:25:57.948Z,8.60
2019-05-22T21:31:02.219Z,9.13
2019-05-22T21:36:05.698Z,8.80
2019-05-22T21:41:08.512Z,5.70
2019-05-22T21:46:11.949Z,7.30
2019-05-22T21:51:15.213Z,5.27
2019-05-22T21:56:17.363Z,7.33
2019-05-22T22:01:39.735Z,5.17
2019-05-22T22:06:42.381Z,8.83
2019-05-22T22:11:45.049Z,9.00
2019-05-22T22:16:47.878Z,6.37
2019-05-22T22:21:50.457Z,5.53
2019-05-22T22:26:53.262Z,5.17
2019-05-22T22:31:57.681Z,7.90
2019-05-22T22:37:00.537Z,9.27
2019-05-22T22:42:04.867Z,5.53
2019-05-22T22:47:13.910Z,7.07
2019-05-22T22:52:18.750Z,6.83
2019-05-22T22:57:21.729Z,7.17
2019-05-22T23:02:28.957Z,6.50
2019-05-22T23:07:34.102Z,7.67
2019-05-22T23:12:38.081Z,7.60
2019-05-22T23:17:42.069Z,7.13
2019-05-22T23:22:43.448Z,9.33
2019-05-22T23:27:45.921Z,8.53
2019-05-22T23:33:09.847Z,10.87
2019-05-22T23:38:12.620Z,7.07
2019-05-22T23:43:15.002Z,6.27
2019-05-22T23:48:17.340Z,9.03
2019-05-22T23:53:22.657Z,7.73
2019-05-22T23:58:25.638Z,10.03
